createdAt,value
2018-08-06T00:02:19.826Z,99534.36
2018-08-06T00:04:47.646Z,99535.74
2018-08-06T00:07:15.452Z,99529.94
2018-08-06T00:09:43.297Z,99526.36
2018-08-06T00:12:11.064Z,99533.83
2018-08-06T00:14:38.920Z,99537.95
2018-08-06T00:17:06.921Z,99533.82
2018-08-06T00:19:34.785Z,99532.70
2018-08-06T00:22:02.641Z,99541.20
2018-08-06T00:24:30.468Z,99541.87
2018-08-06T00:26:58.271Z,99542.72
2018-08-06T00:29:26.105Z,99538.01
2018-08-06T00:31:53.969Z,99533.86
2018-08-06T00:34:21.775Z,99531.41
2018-08-06T00:36:49.614Z,99534.98
2018-08-06T00:39:17.445Z,99530.83
2018-08-06T00:41:45.230Z,99537.16
2018-08-06T00:44:13.015Z,99533.87
2018-08-06T00:46:40.906Z,99534.66
2018-08-06T00:49:08.732Z,99536.64
2018-08-06T00:51:36.542Z,99531.98
2018-08-06T00:54:04.465Z,99527.81
2018-08-06T00:56:32.285Z,99533.91
2018-08-06T00:59:00.069Z,99527.56
2018-08-06T01:01:27.881Z,99523.95
2018-08-06T01:03:55.657Z,99530.56
2018-08-06T01:06:23.485Z,99528.65
2018-08-06T01:08:51.336Z,99536.64
2018-08-06T01:11:19.148Z,99535.27
2018-08-06T01:13:46.937Z,99535.84
2018-08-06T01:16:14.758Z,99532.82
2018-08-06T01:18:42.670Z,99532.53
2018-08-06T01:21:10.554Z,99531.97
2018-08-06T01:23:38.362Z,99524.28
2018-08-06T01:26:06.286Z,99528.67
2018-08-06T01:28:34.049Z,99523.47
2018-08-06T01:31:01.880Z,99524.28
2018-08-06T01:33:29.681Z,99528.66
2018-08-06T01:35:57.489Z,99516.84
2018-08-06T01:38:25.281Z,99515.72
2018-08-06T01:40:53.089Z,99515.48
2018-08-06T01:43:20.941Z,99525.66
2018-08-06T01:45:48.721Z,99530.33
2018-08-06T01:48:16.558Z,99527.02
2018-08-06T01:50:44.335Z,99527.23
2018-08-06T01:53:12.138Z,99537.09
2018-08-06T01:55:39.927Z,99538.45
2018-08-06T01:58:07.734Z,99540.06
2018-08-06T02:00:35.570Z,99536.48
2018-08-06T02:03:03.379Z,99540.30
2018-08-06T02:05:31.170Z,99533.72
2018-08-06T02:07:58.995Z,99537.97
2018-08-06T02:10:26.813Z,99543.98
2018-08-06T02:12:54.633Z,99545.66
2018-08-06T02:15:22.488Z,99539.05
2018-08-06T02:17:50.310Z,99537.72
2018-08-06T02:20:18.364Z,99534.98
2018-08-06T02:22:47.136Z,99531.20
2018-08-06T02:25:15.293Z,99540.30
2018-08-06T02:27:43.558Z,99537.19
2018-08-06T02:30:12.919Z,99540.00
2018-08-06T02:32:40.954Z,99535.36
2018-08-06T02:35:11.140Z,99538.91
2018-08-06T02:37:39.475Z,99541.91
2018-08-06T02:40:09.441Z,99539.81
2018-08-06T02:42:37.513Z,99537.08
2018-08-06T02:45:05.934Z,99539.29
2018-08-06T02:47:33.818Z,99544.53
2018-08-06T02:50:01.627Z,99541.73
2018-08-06T02:52:29.509Z,99551.37
2018-08-06T02:54:57.362Z,99548.55
2018-08-06T02:57:25.166Z,99552.05
2018-08-06T02:59:52.961Z,99552.39
2018-08-06T03:02:20.769Z,99557.08
2018-08-06T03:04:48.617Z,99560.09
2018-08-06T03:07:16.401Z,99557.06
2018-08-06T03:09:44.191Z,99550.44
2018-08-06T03:12:12.029Z,99551.53
2018-08-06T03:14:39.905Z,99552.87
2018-08-06T03:17:07.746Z,99545.48
2018-08-06T03:19:35.549Z,99550.22
2018-08-06T03:22:03.374Z,99547.23
2018-08-06T03:24:31.177Z,99550.58
2018-08-06T03:26:59.107Z,99551.95
2018-08-06T03:29:27.013Z,99558.02
2018-08-06T03:31:54.822Z,99556.94
2018-08-06T03:34:22.650Z,99558.09
2018-08-06T03:36:50.477Z,99558.91
2018-08-06T03:39:18.282Z,99560.83
2018-08-06T03:41:46.118Z,99555.88
2018-08-06T03:44:13.910Z,99555.10
2018-08-06T03:46:41.717Z,99548.38
2018-08-06T03:49:09.540Z,99547.02
2018-08-06T03:51:37.361Z,99547.58
2018-08-06T03:54:05.309Z,99538.91
2018-08-06T03:56:33.059Z,99541.11
2018-08-06T03:59:00.901Z,99536.50
2018-08-06T04:01:28.913Z,99533.47
2018-08-06T04:03:56.701Z,99525.98
2018-08-06T04:06:24.914Z,99534.31
2018-08-06T04:08:52.760Z,99528.45
2018-08-06T04:11:20.510Z,99541.30
2018-08-06T04:13:48.326Z,99530.89
2018-08-06T04:16:16.137Z,99533.73
2018-08-06T04:18:43.895Z,99529.46
2018-08-06T04:21:11.693Z,99536.08
2018-08-06T04:23:39.465Z,99540.61
2018-08-06T04:26:07.526Z,99547.02
2018-08-06T04:28:35.326Z,99547.38
2018-08-06T04:31:03.166Z,99535.41
2018-08-06T04:33:31.014Z,99538.88
2018-08-06T04:35:58.808Z,99539.76
2018-08-06T04:38:26.627Z,99530.45
2018-08-06T04:40:54.442Z,99529.17
2018-08-06T04:43:22.276Z,99526.35
2018-08-06T04:45:50.169Z,99529.45
2018-08-06T04:48:18.029Z,99523.67
2018-08-06T04:50:45.830Z,99538.22
2018-08-06T04:53:13.655Z,99547.56
2018-08-06T04:55:41.482Z,99556.34
2018-08-06T04:58:09.290Z,99551.83
2018-08-06T05:00:37.077Z,99567.39
2018-08-06T05:03:04.983Z,99568.19
2018-08-06T05:05:32.795Z,99562.52
2018-08-06T05:08:00.587Z,99565.42
2018-08-06T05:10:28.440Z,99572.27
2018-08-06T05:12:56.217Z,99562.94
2018-08-06T05:15:24.056Z,99568.64
2018-08-06T05:17:51.873Z,99558.06
2018-08-06T05:20:19.765Z,99564.06
2018-08-06T05:22:47.569Z,99569.52
2018-08-06T05:25:15.809Z,99579.02
2018-08-06T05:27:43.982Z,99578.19
2018-08-06T05:30:13.757Z,99584.16
2018-08-06T05:32:41.890Z,99587.86
2018-08-06T05:35:10.001Z,99584.63
2018-08-06T05:37:37.905Z,99587.81
2018-08-06T05:40:07.772Z,99583.59
2018-08-06T05:42:35.652Z,99588.99
2018-08-06T05:45:04.917Z,99583.27
2018-08-06T05:47:32.812Z,99590.70
2018-08-06T05:50:00.678Z,99592.08
2018-08-06T05:52:28.616Z,99598.34
2018-08-06T05:54:56.501Z,99591.05
2018-08-06T05:57:24.410Z,99592.19
2018-08-06T05:59:52.290Z,99590.76
2018-08-06T06:02:20.325Z,99588.94
2018-08-06T06:04:48.193Z,99585.33
2018-08-06T06:07:16.123Z,99587.95
2018-08-06T06:09:44.005Z,99587.54
2018-08-06T06:12:11.885Z,99590.19
2018-08-06T06:14:40.112Z,99587.75
2018-08-06T06:17:08.030Z,99584.09
2018-08-06T06:19:35.981Z,99593.23
2018-08-06T06:22:03.875Z,99596.13
2018-08-06T06:24:31.762Z,99601.19
2018-08-06T06:26:59.613Z,99602.98
2018-08-06T06:29:27.576Z,99597.31
2018-08-06T06:31:55.526Z,99601.38
2018-08-06T06:34:23.443Z,99600.09
2018-08-06T06:36:51.299Z,99609.78
2018-08-06T06:39:19.210Z,99607.09
2018-08-06T06:41:47.172Z,99613.91
2018-08-06T06:44:15.135Z,99612.55
2018-08-06T06:46:43.128Z,99614.66
2018-08-06T06:49:11.072Z,99619.31
2018-08-06T06:51:38.928Z,99621.13
2018-08-06T06:54:07.178Z,99624.36
2018-08-06T06:56:35.076Z,99615.87
2018-08-06T06:59:03.031Z,99614.73
2018-08-06T07:01:30.923Z,99611.08
2018-08-06T07:03:58.805Z,99613.29
2018-08-06T07:06:26.742Z,99609.33
2018-08-06T07:08:54.912Z,99611.30
2018-08-06T07:11:22.829Z,99610.22
2018-08-06T07:13:50.832Z,99616.22
2018-08-06T07:16:18.733Z,99612.75
2018-08-06T07:18:46.710Z,99607.79
2018-08-06T07:21:14.639Z,99594.25
2018-08-06T07:23:42.599Z,99594.47
2018-08-06T07:26:10.511Z,99605.36
2018-08-06T07:28:38.456Z,99606.49
2018-08-06T07:31:06.479Z,99601.23
2018-08-06T07:33:34.390Z,99601.56
2018-08-06T07:36:02.373Z,99612.66
2018-08-06T07:38:30.422Z,99601.23
2018-08-06T07:40:58.397Z,99600.36
2018-08-06T07:43:26.563Z,99600.58
2018-08-06T07:45:54.651Z,99603.63
2018-08-06T07:48:22.728Z,99596.70
2018-08-06T07:50:50.802Z,99593.50
2018-08-06T07:53:18.894Z,99593.66
2018-08-06T07:55:46.921Z,99603.81
2018-08-06T07:58:14.965Z,99607.44
2018-08-06T08:00:42.985Z,99609.72
2018-08-06T08:03:11.078Z,99607.03
2018-08-06T08:05:39.182Z,99610.66
2018-08-06T08:08:07.277Z,99609.02
2018-08-06T08:10:35.298Z,99608.60
2018-08-06T08:13:03.322Z,99604.57
2018-08-06T08:15:31.412Z,99605.63
2018-08-06T08:17:59.419Z,99612.55
2018-08-06T08:20:27.545Z,99605.52
2018-08-06T08:22:56.092Z,99610.95
2018-08-06T08:25:24.119Z,99613.85
2018-08-06T08:27:52.160Z,99611.62
2018-08-06T08:30:20.551Z,99603.30
2018-08-06T08:32:48.711Z,99602.73
2018-08-06T08:35:17.014Z,99597.64
2018-08-06T08:37:45.012Z,99600.09
2018-08-06T08:40:16.218Z,99603.73
2018-08-06T08:42:44.587Z,99601.43
2018-08-06T08:45:13.934Z,99589.97
2018-08-06T08:47:42.874Z,99590.64
2018-08-06T08:50:13.995Z,99589.92
2018-08-06T08:52:42.346Z,99590.20
2018-08-06T08:55:11.814Z,99587.16
2018-08-06T08:57:40.057Z,99580.83
2018-08-06T09:00:11.107Z,99578.48
2018-08-06T09:02:39.197Z,99580.77
2018-08-06T09:05:07.532Z,99585.29
2018-08-06T09:07:36.347Z,99584.13
2018-08-06T09:10:05.793Z,99582.04
2018-08-06T09:12:33.941Z,99574.34
2018-08-06T09:15:02.101Z,99579.38
2018-08-06T09:17:30.258Z,99568.66
2018-08-06T09:19:58.274Z,99584.59
2018-08-06T09:22:26.336Z,99571.28
2018-08-06T09:24:54.643Z,99574.55
2018-08-06T09:27:22.763Z,99562.34
2018-08-06T09:29:50.830Z,99560.55
2018-08-06T09:32:18.926Z,99560.33
2018-08-06T09:34:46.994Z,99558.42
2018-08-06T09:37:15.027Z,99560.78
2018-08-06T09:39:43.068Z,99559.02
2018-08-06T09:42:11.358Z,99564.11
2018-08-06T09:44:39.593Z,99563.82
2018-08-06T09:47:07.642Z,99561.51
2018-08-06T09:49:35.662Z,99555.83
2018-08-06T09:52:03.727Z,99550.59
2018-08-06T09:54:31.797Z,99556.12
2018-08-06T09:56:59.924Z,99547.81
2018-08-06T09:59:28.042Z,99553.11
2018-08-06T10:01:57.102Z,99545.81
2018-08-06T10:04:25.791Z,99536.40
2018-08-06T10:06:54.114Z,99546.80
2018-08-06T10:09:22.130Z,99538.67
2018-08-06T10:11:50.200Z,99537.23
2018-08-06T10:14:18.599Z,99539.00
2018-08-06T10:16:46.644Z,99533.03
2018-08-06T10:19:14.767Z,99524.39
2018-08-06T10:21:42.766Z,99530.88
2018-08-06T10:24:10.938Z,99528.16
2018-08-06T10:26:38.951Z,99528.52
2018-08-06T10:29:07.167Z,99523.97
2018-08-06T10:31:36.135Z,99523.05
2018-08-06T10:34:04.167Z,99512.19
2018-08-06T10:36:32.222Z,99513.80
2018-08-06T10:39:00.414Z,99520.58
2018-08-06T10:41:28.494Z,99514.69
2018-08-06T10:43:56.480Z,99519.71
2018-08-06T10:46:24.603Z,99510.13
2018-08-06T10:48:52.647Z,99506.84
2018-08-06T10:51:20.664Z,99503.33
2018-08-06T10:53:48.737Z,99504.50
2018-08-06T10:56:16.804Z,99500.42
2018-08-06T10:58:44.947Z,99501.52
2018-08-06T11:01:13.036Z,99504.75
2018-08-06T11:03:41.107Z,99505.44
2018-08-06T11:06:09.182Z,99501.44
2018-08-06T11:08:37.393Z,99502.39
2018-08-06T11:11:05.473Z,99496.88
2018-08-06T11:13:34.060Z,99487.34
2018-08-06T11:16:02.157Z,99480.75
2018-08-06T11:18:30.149Z,99480.79
2018-08-06T11:20:58.219Z,99488.91
2018-08-06T11:23:27.149Z,99478.08
2018-08-06T11:25:55.413Z,99481.86
2018-08-06T11:28:23.497Z,99473.42
2018-08-06T11:30:51.630Z,99470.52
2018-08-06T11:33:19.627Z,99475.69
2018-08-06T11:35:47.690Z,99475.66
2018-08-06T11:38:15.728Z,99466.73
2018-08-06T11:40:43.795Z,99461.78
2018-08-06T11:43:11.859Z,99460.55
2018-08-06T11:45:39.882Z,99464.50
2018-08-06T11:48:08.079Z,99460.86
2018-08-06T11:50:36.116Z,99461.30
2018-08-06T11:53:04.170Z,99466.19
2018-08-06T11:55:32.226Z,99457.73
2018-08-06T11:58:00.195Z,99454.42
2018-08-06T12:00:28.846Z,99444.87
2018-08-06T12:02:56.950Z,99453.53
2018-08-06T12:05:24.938Z,99447.48
2018-08-06T12:07:52.952Z,99446.83
2018-08-06T12:10:21.007Z,99443.62
2018-08-06T12:12:49.584Z,99438.34
2018-08-06T12:15:17.721Z,99436.52
2018-08-06T12:17:45.778Z,99438.27
2018-08-06T12:20:17.052Z,99443.34
2018-08-06T12:22:46.169Z,99425.23
2018-08-06T12:25:15.193Z,99431.25
2018-08-06T12:27:43.938Z,99425.34
2018-08-06T12:30:18.104Z,99422.84
2018-08-06T12:32:46.833Z,99419.98
2018-08-06T12:35:15.350Z,99419.67
2018-08-06T12:37:43.905Z,99414.37
2018-08-06T12:40:13.516Z,99422.70
2018-08-06T12:42:41.970Z,99425.92
2018-08-06T12:45:11.399Z,99412.64
2018-08-06T12:47:39.885Z,99413.89
2018-08-06T12:50:09.381Z,99406.14
2018-08-06T12:52:37.961Z,99407.95
2018-08-06T12:55:07.523Z,99407.58
2018-08-06T12:57:35.857Z,99401.53
2018-08-06T13:00:05.721Z,99400.50
2018-08-06T13:02:33.769Z,99402.34
2018-08-06T13:05:01.828Z,99394.00
2018-08-06T13:07:29.886Z,99400.38
2018-08-06T13:09:57.925Z,99394.52
2018-08-06T13:12:25.930Z,99399.56
2018-08-06T13:14:53.957Z,99396.66
2018-08-06T13:17:21.981Z,99398.84
2018-08-06T13:19:50.135Z,99397.94
2018-08-06T13:22:18.150Z,99391.35
2018-08-06T13:24:46.212Z,99397.11
2018-08-06T13:27:14.393Z,99393.89
2018-08-06T13:29:42.392Z,99383.21
2018-08-06T13:32:10.447Z,99384.16
2018-08-06T13:34:38.446Z,99379.41
2018-08-06T13:37:06.526Z,99378.22
2018-08-06T13:39:34.542Z,99379.11
2018-08-06T13:42:02.571Z,99385.64
2018-08-06T13:44:30.678Z,99386.00
2018-08-06T13:46:58.694Z,99374.06
2018-08-06T13:49:26.891Z,99369.79
2018-08-06T13:51:54.889Z,99365.78
2018-08-06T13:54:22.945Z,99377.82
2018-08-06T13:56:50.950Z,99371.59
2018-08-06T13:59:19.071Z,99370.05
2018-08-06T14:01:47.055Z,99372.88
2018-08-06T14:04:14.983Z,99372.09
2018-08-06T14:06:42.831Z,99370.92
2018-08-06T14:09:11.973Z,99367.65
2018-08-06T14:11:39.898Z,99364.08
2018-08-06T14:14:07.937Z,99362.91
2018-08-06T14:16:35.845Z,99367.31
2018-08-06T14:19:04.194Z,99371.00
2018-08-06T14:21:32.086Z,99370.87
2018-08-06T14:23:59.917Z,99367.91
2018-08-06T14:26:28.492Z,99372.83
2018-08-06T14:28:56.988Z,99364.36
2018-08-06T14:31:24.865Z,99367.67
2018-08-06T14:33:52.889Z,99373.97
2018-08-06T14:36:20.756Z,99370.05
2018-08-06T14:38:48.705Z,99364.17
2018-08-06T14:41:16.621Z,99368.80
2018-08-06T14:43:44.522Z,99364.97
2018-08-06T14:46:12.457Z,99361.59
2018-08-06T14:48:40.309Z,99362.13
2018-08-06T14:51:08.547Z,99353.19
2018-08-06T14:53:36.405Z,99358.03
2018-08-06T14:56:04.395Z,99358.52
2018-08-06T14:58:32.706Z,99354.30
2018-08-06T15:01:00.647Z,99361.28
2018-08-06T15:03:28.529Z,99361.33
2018-08-06T15:05:56.400Z,99362.00
2018-08-06T15:08:24.371Z,99357.05
2018-08-06T15:10:52.288Z,99355.47
2018-08-06T15:13:20.199Z,99344.36
2018-08-06T15:15:48.060Z,99344.97
2018-08-06T15:18:16.002Z,99350.31
2018-08-06T15:20:43.870Z,99349.53
2018-08-06T15:23:11.806Z,99348.62
2018-08-06T15:25:40.079Z,99344.70
2018-08-06T15:28:07.998Z,99345.50
2018-08-06T15:30:35.913Z,99349.16
2018-08-06T15:33:03.830Z,99346.52
2018-08-06T15:35:31.738Z,99335.61
2018-08-06T15:37:59.637Z,99339.67
2018-08-06T15:40:27.486Z,99343.84
2018-08-06T15:42:55.461Z,99344.66
2018-08-06T15:45:23.302Z,99337.23
2018-08-06T15:47:51.165Z,99338.81
2018-08-06T15:50:20.789Z,99337.53
2018-08-06T15:52:48.752Z,99339.73
2018-08-06T15:55:16.657Z,99338.33
2018-08-06T15:57:44.541Z,99344.47
2018-08-06T16:00:14.801Z,99343.94
2018-08-06T16:02:42.911Z,99338.77
2018-08-06T16:05:11.048Z,99343.88
2018-08-06T16:07:39.361Z,99337.33
2018-08-06T16:10:08.636Z,99338.69
2018-08-06T16:12:36.561Z,99339.19
2018-08-06T16:15:06.202Z,99338.63
2018-08-06T16:17:34.073Z,99341.61
2018-08-06T16:20:02.443Z,99344.69
2018-08-06T16:22:30.279Z,99343.33
2018-08-06T16:24:58.164Z,99341.95
2018-08-06T16:27:26.050Z,99344.62
2018-08-06T16:29:54.329Z,99350.98
2018-08-06T16:32:22.240Z,99349.97
2018-08-06T16:34:50.101Z,99350.83
2018-08-06T16:37:18.026Z,99352.49
2018-08-06T16:39:45.936Z,99348.38
2018-08-06T16:42:13.798Z,99347.93
2018-08-06T16:44:41.710Z,99357.74
2018-08-06T16:47:09.625Z,99365.59
2018-08-06T16:49:37.514Z,99366.24
2018-08-06T16:52:05.631Z,99368.05
2018-08-06T16:54:33.551Z,99362.63
2018-08-06T16:57:01.505Z,99365.33
2018-08-06T16:59:29.404Z,99365.67
2018-08-06T17:01:57.318Z,99365.23
2018-08-06T17:04:25.193Z,99366.09
2018-08-06T17:06:53.174Z,99368.97
2018-08-06T17:09:21.070Z,99369.18
2018-08-06T17:11:49.117Z,99381.36
2018-08-06T17:14:17.043Z,99378.33
2018-08-06T17:16:44.902Z,99369.11
2018-08-06T17:19:13.203Z,99375.23
2018-08-06T17:21:41.151Z,99377.19
2018-08-06T17:24:09.178Z,99383.63
2018-08-06T17:26:37.204Z,99380.27
2018-08-06T17:29:05.163Z,99383.96
2018-08-06T17:31:33.029Z,99379.48
2018-08-06T17:34:01.000Z,99385.17
2018-08-06T17:36:28.940Z,99385.89
2018-08-06T17:38:56.888Z,99380.62
2018-08-06T17:41:24.858Z,99388.16
2018-08-06T17:43:52.991Z,99390.38
2018-08-06T17:46:20.920Z,99394.09
2018-08-06T17:48:48.912Z,99396.28
2018-08-06T17:51:16.857Z,99396.06
2018-08-06T17:53:44.799Z,99398.78
2018-08-06T17:56:12.711Z,99405.42
2018-08-06T17:58:40.671Z,99401.59
2018-08-06T18:01:08.568Z,99402.15
2018-08-06T18:03:36.444Z,99406.17
2018-08-06T18:06:04.691Z,99408.38
2018-08-06T18:08:32.707Z,99409.21
2018-08-06T18:11:00.579Z,99414.48
2018-08-06T18:13:28.587Z,99420.58
2018-08-06T18:15:56.529Z,99426.64
2018-08-06T18:18:24.487Z,99419.59
2018-08-06T18:20:52.638Z,99419.39
2018-08-06T18:23:20.545Z,99419.08
2018-08-06T18:25:48.473Z,99422.02
2018-08-06T18:28:16.427Z,99425.58
2018-08-06T18:30:44.347Z,99433.69
2018-08-06T18:33:12.203Z,99428.88
2018-08-06T18:35:40.076Z,99437.13
2018-08-06T18:38:08.042Z,99432.30
2018-08-06T18:40:36.661Z,99432.97
2018-08-06T18:43:04.673Z,99435.27
2018-08-06T18:45:32.554Z,99443.68
2018-08-06T18:48:00.431Z,99446.48
2018-08-06T18:50:28.351Z,99449.34
2018-08-06T18:52:56.226Z,99449.34
2018-08-06T18:55:24.175Z,99448.33
2018-08-06T18:57:52.118Z,99451.67
2018-08-06T19:00:22.678Z,99454.47
2018-08-06T19:02:50.734Z,99448.88
2018-08-06T19:05:18.752Z,99450.09
2018-08-06T19:07:46.857Z,99447.89
2018-08-06T19:10:14.866Z,99452.92
2018-08-06T19:12:48.292Z,99451.31
2018-08-06T19:15:16.196Z,99456.16
2018-08-06T19:17:49.543Z,99448.94
2018-08-06T19:20:17.532Z,99451.11
2018-08-06T19:22:45.570Z,99447.69
2018-08-06T19:25:18.973Z,99450.34
2018-08-06T19:27:46.931Z,99457.44
2018-08-06T19:30:14.831Z,99458.08
2018-08-06T19:32:42.784Z,99459.45
2018-08-06T19:35:10.693Z,99460.52
2018-08-06T19:37:48.749Z,99456.25
2018-08-06T19:40:16.714Z,99453.30
2018-08-06T19:42:53.839Z,99450.88
2018-08-06T19:45:21.825Z,99459.75
2018-08-06T19:47:49.707Z,99456.44
2018-08-06T19:50:23.312Z,99454.91
2018-08-06T19:52:51.153Z,99454.22
2018-08-06T19:55:24.700Z,99449.27
2018-08-06T19:57:52.575Z,99459.98
2018-08-06T20:00:20.576Z,99458.23
2018-08-06T20:02:48.939Z,99451.53
2018-08-06T20:05:16.891Z,99454.02
2018-08-06T20:07:44.900Z,99454.71
2018-08-06T20:10:14.076Z,99463.12
2018-08-06T20:12:42.102Z,99457.48
2018-08-06T20:15:12.159Z,99462.11
2018-08-06T20:17:40.187Z,99463.38
2018-08-06T20:20:08.878Z,99460.92
2018-08-06T20:22:36.738Z,99461.31
2018-08-06T20:25:07.251Z,99457.48
2018-08-06T20:27:35.290Z,99462.10
2018-08-06T20:30:04.495Z,99456.77
2018-08-06T20:32:32.570Z,99463.13
2018-08-06T20:35:00.647Z,99467.69
2018-08-06T20:37:28.756Z,99468.13
2018-08-06T20:39:57.649Z,99466.80
2018-08-06T20:42:25.721Z,99468.50
2018-08-06T20:44:53.780Z,99467.16
2018-08-06T20:47:21.779Z,99467.47
2018-08-06T20:49:49.791Z,99463.47
2018-08-06T20:52:17.831Z,99471.78
2018-08-06T20:54:45.869Z,99472.05
2018-08-06T20:57:13.920Z,99468.77
2018-08-06T20:59:41.946Z,99468.67
2018-08-06T21:02:10.041Z,99476.27
2018-08-06T21:04:38.074Z,99469.40
2018-08-06T21:07:06.214Z,99477.41
2018-08-06T21:09:34.273Z,99478.48
2018-08-06T21:12:02.393Z,99483.24
2018-08-06T21:14:30.495Z,99480.22
2018-08-06T21:16:58.595Z,99477.79
2018-08-06T21:19:26.622Z,99481.95
2018-08-06T21:21:54.683Z,99477.94
2018-08-06T21:24:22.693Z,99475.58
2018-08-06T21:26:50.780Z,99479.38
2018-08-06T21:29:18.746Z,99483.17
2018-08-06T21:31:46.739Z,99487.05
2018-08-06T21:34:14.731Z,99483.17
2018-08-06T21:36:42.792Z,99476.52
2018-08-06T21:39:10.794Z,99484.16
2018-08-06T21:41:38.895Z,99482.93
2018-08-06T21:44:07.257Z,99489.63
2018-08-06T21:46:35.316Z,99488.31
2018-08-06T21:49:03.414Z,99486.78
2018-08-06T21:51:31.422Z,99487.27
2018-08-06T21:53:59.658Z,99487.61
2018-08-06T21:56:27.935Z,99483.34
2018-08-06T21:58:56.078Z,99479.53
2018-08-06T22:01:24.191Z,99484.66
2018-08-06T22:03:52.340Z,99485.08
2018-08-06T22:06:20.279Z,99481.72
2018-08-06T22:08:48.256Z,99484.45
2018-08-06T22:11:16.130Z,99483.02
2018-08-06T22:13:44.083Z,99484.48
2018-08-06T22:16:11.993Z,99473.48
2018-08-06T22:18:39.874Z,99478.70
2018-08-06T22:21:07.838Z,99477.34
2018-08-06T22:23:35.691Z,99480.34
2018-08-06T22:26:03.682Z,99477.42
2018-08-06T22:28:31.597Z,99474.04
2018-08-06T22:30:59.433Z,99476.11
2018-08-06T22:33:27.314Z,99479.31
2018-08-06T22:35:55.207Z,99471.41
2018-08-06T22:38:23.062Z,99474.23
2018-08-06T22:40:50.947Z,99478.70
2018-08-06T22:43:18.813Z,99481.10
2018-08-06T22:45:46.688Z,99477.22
2018-08-06T22:48:14.648Z,99476.11
2018-08-06T22:50:42.577Z,99474.23
2018-08-06T22:53:10.413Z,99481.17
2018-08-06T22:55:49.265Z,99473.41
2018-08-06T22:58:17.154Z,99476.17
2018-08-06T23:00:45.006Z,99478.59
2018-08-06T23:03:12.856Z,99479.44
2018-08-06T23:05:40.754Z,99478.95
2018-08-06T23:08:08.681Z,99479.08
2018-08-06T23:10:36.535Z,99475.96
2018-08-06T23:13:04.390Z,99471.78
2018-08-06T23:15:32.266Z,99464.23
2018-08-06T23:18:00.187Z,99463.41
2018-08-06T23:20:28.065Z,99456.12
2018-08-06T23:22:55.996Z,99455.14
2018-08-06T23:25:23.968Z,99458.89
2018-08-06T23:27:51.848Z,99456.42
2018-08-06T23:30:19.772Z,99459.00
2018-08-06T23:32:47.639Z,99459.83
2018-08-06T23:35:15.618Z,99468.06
2018-08-06T23:37:44.500Z,99473.76
2018-08-06T23:40:13.276Z,99473.47
2018-08-06T23:42:41.784Z,99480.52
2018-08-06T23:45:11.130Z,99480.05
2018-08-06T23:47:39.738Z,99482.55
2018-08-06T23:50:09.650Z,99475.05
2018-08-06T23:52:37.826Z,99483.27
2018-08-06T23:55:06.613Z,99478.59
2018-08-06T23:57:34.794Z,99483.79
